Thursday, May 24, 2018, 12:24 AM EDT
Back to Local

KMGJ, Montgomery Orange Co Airport

Location: Montgomery, NY, United States Lat: 41.517
Local Time: 12:24 AM EDT ( 4:24 GMT) Lon: -74.267
Time Zone: US/Eastern Elev: 354 ft

Show me the last for .
Show Decoded

2018-05-23 23:54 METAR KMGJ 240354Z AUTO 29005KT 10SM CLR 15/12 A3002 RMK AO2 SLP164 T01500117 =
2018-05-23 22:54 METAR KMGJ 240254Z AUTO 00000KT 10SM CLR 15/11 A3002 RMK AO2 SLP164 T01500111
                 53020 =
2018-05-23 21:54 METAR KMGJ 240154Z AUTO 00000KT 10SM CLR 17/12 A3000 RMK AO2 SLP157 T01670117 =
2018-05-23 20:54 METAR KMGJ 240054Z AUTO 28006KT 10SM CLR 22/10 A2997 RMK AO2 SLP149 T02170100 =
2018-05-23 19:54 METAR KMGJ 232354Z AUTO 28003KT 10SM CLR 23/11 A2996 RMK AO2 SLP143 T02280106
                 10278 20228 53013 =
2018-05-23 18:54 METAR KMGJ 232254Z AUTO 30007KT 10SM CLR 26/09 A2994 RMK AO2 SLP137 T02610089 =
2018-05-23 17:54 METAR KMGJ 232154Z AUTO 32010G15KT 10SM CLR 27/09 A2993 RMK AO2 SLP133 T02720094
                 =
2018-05-23 16:54 METAR KMGJ 232054Z AUTO 30009KT 10SM FEW080 27/10 A2992 RMK AO2 SLP130 T02720100
                 56007 =
2018-05-23 15:54 METAR KMGJ 231954Z AUTO VRB05KT 10SM BKN080 27/12 A2992 RMK AO2 SLP131 T02670117
                 =
2018-05-23 14:54 METAR KMGJ 231854Z AUTO 14005KT 10SM FEW060 26/13 A2993 RMK AO2 SLP133 T02560128
                 =
2018-05-23 13:54 METAR KMGJ 231754Z AUTO VRB05KT 10SM CLR 25/13 A2994 RMK AO2 SLP137 T02500133
                 10250 20167 58006 =
2018-05-23 12:54 METAR KMGJ 231654Z AUTO 03009KT 10SM CLR 24/14 A2994 RMK AO2 SLP139 T02390139 =
2018-05-23 11:54 METAR KMGJ 231554Z AUTO VRB05KT 10SM SCT026 22/17 A2996 RMK AO2 SLP143 T02170167
                 =
2018-05-23 11:42 METAR KMGJ 231542Z AUTO VRB03KT 10SM SCT024 BKN029 22/16 A2996 RMK AO2 T02170161
                 =
2018-05-23 11:04 METAR KMGJ 231504Z AUTO 04005KT 10SM SCT028 BKN034 21/17 A2996 RMK AO2 T02110167
                 =
2018-05-23 10:54 METAR KMGJ 231454Z AUTO 04006KT 10SM BKN028 OVC035 20/16 A2996 RMK AO2 SLP144
                 T02000161 53021 =
2018-05-23 10:42 METAR KMGJ 231442Z AUTO 05008KT 10SM BKN029 BKN035 OVC043 19/16 A2996 RMK AO2
                 T01940161 =
2018-05-23 09:54 METAR KMGJ 231354Z AUTO 04007KT 10SM FEW017 BKN032 OVC039 19/17 A2994 RMK AO2
                 SLP137 T01940167 =
2018-05-23 08:54 METAR KMGJ 231254Z AUTO 28004KT 10SM FEW075 BKN100 19/16 A2991 RMK AO2 SLP129
                 T01890161 =
2018-05-23 07:54 METAR KMGJ 231154Z AUTO 23004KT 10SM FEW060 BKN100 OVC120 17/16 A2990 RMK AO2
                 SLP124 60011 70027 T01670156 10167 20139 50008 =
2018-05-23 06:54 METAR KMGJ 231054Z AUTO 20004KT 9SM FEW003 OVC100 15/14 A2990 RMK AO2 SLP125
                 T01500144 =
2018-05-23 05:54 METAR KMGJ 230954Z AUTO 20005KT 8SM SCT004 BKN110 14/14 A2989 RMK AO2 RAE12
                 SLP122 P0000 T01390139 =
2018-05-23 05:24 METAR KMGJ 230924Z AUTO 21006KT 8SM BKN004 OVC110 14/14 A2988 RMK AO2 RAE12
                 P0000 T01390139 =
2018-05-23 05:06 METAR KMGJ 230906Z AUTO 22004KT 7SM -RA FEW004 FEW050 OVC110 14/13 A2988 RMK AO2
                 P0000 T01390133 =
2018-05-23 04:54 METAR KMGJ 230854Z AUTO 18004KT 7SM -RA FEW014 SCT090 OVC110 14/14 A2987 RMK AO2
                 SLP116 P0007 60011 T01390139 58008 =
2018-05-23 03:54 METAR KMGJ 230754Z AUTO 21004KT 8SM -RA FEW065 OVC100 14/13 A2989 RMK AO2
                 RAE0659B52 SLP120 P0000 T01390133 =
2018-05-23 03:45 METAR KMGJ 230745Z AUTO 25003KT 9SM SCT006 SCT065 OVC100 14/13 A2988 RMK AO2
                 RAE0659 P0000 T01390133 =
2018-05-23 03:18 METAR KMGJ 230718Z AUTO 20006KT 10SM BKN006 BKN120 14/13 A2989 RMK AO2 LTG DSNT
                 W RAE0659 P0000 T01440133 =
2018-05-23 02:54 METAR KMGJ 230654Z AUTO 21008KT 8SM -RA FEW007 SCT045 BKN090 14/13 A2990 RMK AO2
                 TSE0558 SLP123 P0004 T01390133 =
2018-05-23 02:51 METAR KMGJ 230651Z AUTO 22007KT 7SM -RA SCT007 SCT046 OVC095 14/13 A2990 RMK AO2
                 LTG DSNT E TSE0558 P0004 =
2018-05-23 02:04 METAR KMGJ 230604Z AUTO 24006KT 6SM -RA BR BKN006 BKN049 OVC100 14/13 A2991 RMK
                 AO2 LTG DSNT E TSE0558 P0000 T01440133 =
2018-05-23 01:54 METAR KMGJ 230554Z AUTO 22008KT 5SM TSRA BR BKN006 OVC049 14/13 A2991 RMK AO2
                 LTG DSNT E RAB09 TSB17E35B40 SLP128 P0009 60009 T01440133 10144 20139 58016 =
2018-05-23 01:19 METAR KMGJ 230519Z AUTO 21007KT 5SM -TSRA BR BKN006 BKN023 OVC040 14/13 A2992
                 RMK AO2 RAB09 TSB17 CIG 003V008 P0006 T01440133 =
2018-05-23 01:15 METAR KMGJ 230515Z AUTO 22007KT 3SM VCTS RA BR BKN004 BKN023 OVC040 14/13 A2992
                 RMK AO2 RAB09 CIG 003V008 P0006 T01390133 =
2018-05-23 00:54 METAR KMGJ 230454Z AUTO 21003KT 4SM BR OVC003 14/13 A2993 RMK AO2 SLP134
                 T01390133 401780122 =
2018-05-23 00:38 METAR KMGJ 230438Z AUTO 21004KT 3SM BR OVC003 14/13 A2993 RMK AO2 LTG DSNT N AND
                 NW T01390133 =
2018-05-23 00:25 METAR KMGJ 230425Z AUTO 23003KT 2 1/2SM BR OVC003 14/13 A2994 RMK AO2 LTG DSNT
                 W-N T01390133 =

Support USWX by starting your Amazon purchase here.